Time;durP1;ratioP1;P1;durP2;ratioP2;P2;SDS_P1;SDS_P2;PMS_P1;PMS_P2;Temp;Humidity;BMP_temperature;BMP_pressure;BME280_temperature;BME280_humidity;BME280_pressure;Samples;Min_cycle;Max_cycle;Signal;HPM_P1;HPM_P2
2022/01/09 00:00:08;;;;;;;2.05;1.85;;;;;;;;;;4882831;29;20196;-81
2022/01/09 00:02:36;;;;;;;1.88;1.77;;;;;;;;;;4891038;29;20191;-80
2022/01/09 00:05:05;;;;;;;2.13;1.92;;;;;;;;;;4900837;29;20250;-81
2022/01/09 00:07:32;;;;;;;1.58;1.48;;;;;;;;;;4900972;29;20737;-80
2022/01/09 00:10:00;;;;;;;1.50;1.45;;;;;;;;;;4900940;29;20211;-81
2022/01/09 00:12:28;;;;;;;2.08;1.88;;;;;;;;;;4900922;29;20636;-80
2022/01/09 00:14:55;;;;;;;1.20;1.20;;;;;;;;;;4899872;29;20230;-80
2022/01/09 00:17:22;;;;;;;1.60;1.50;;;;;;;;;;4901692;29;20598;-80
2022/01/09 00:19:50;;;;;;;2.08;1.83;;;;;;;;;;4901510;29;20198;-81
2022/01/09 00:22:26;;;;;;;2.08;1.80;;;;;;;;;;4901150;29;20207;-80
2022/01/09 00:24:54;;;;;;;1.65;1.55;;;;;;;;;;4901618;29;20219;-81
2022/01/09 00:27:21;;;;;;;1.65;1.55;;;;;;;;;;4901224;29;20231;-81
2022/01/09 00:29:49;;;;;;;1.80;1.70;;;;;;;;;;4900493;29;20214;-80
2022/01/09 00:32:16;;;;;;;1.58;1.48;;;;;;;;;;4900652;29;20217;-81
2022/01/09 00:34:43;;;;;;;1.80;1.70;;;;;;;;;;4900504;29;20211;-81
2022/01/09 00:37:11;;;;;;;1.50;1.40;;;;;;;;;;4900375;29;20234;-81
2022/01/09 00:39:40;;;;;;;1.95;1.83;;;;;;;;;;4900868;29;20195;-80
2022/01/09 00:42:07;;;;;;;1.52;1.42;;;;;;;;;;4900461;29;20683;-81
2022/01/09 00:44:35;;;;;;;1.40;1.30;;;;;;;;;;4900886;29;20584;-81
2022/01/09 00:47:02;;;;;;;1.60;1.50;;;;;;;;;;4900776;29;20230;-81
2022/01/09 00:49:30;;;;;;;1.58;1.48;;;;;;;;;;4900260;29;20594;-81
2022/01/09 00:51:57;;;;;;;1.73;1.63;;;;;;;;;;4900508;29;20198;-81
2022/01/09 00:54:25;;;;;;;1.70;1.60;;;;;;;;;;4900866;29;20198;-80
2022/01/09 00:56:54;;;;;;;1.55;1.45;;;;;;;;;;4900811;29;20242;-80
2022/01/09 00:59:21;;;;;;;1.80;1.70;;;;;;;;;;4900037;29;20608;-81
2022/01/09 01:01:49;;;;;;;2.65;1.60;;;;;;;;;;4900617;29;20191;-81
2022/01/09 01:04:16;;;;;;;1.52;1.42;;;;;;;;;;4900143;29;20672;-80
2022/01/09 01:06:43;;;;;;;1.45;1.25;;;;;;;;;;4900585;29;20234;-82
2022/01/09 01:09:11;;;;;;;1.73;1.63;;;;;;;;;;4900242;29;20207;-80
2022/01/09 01:11:39;;;;;;;1.50;1.40;;;;;;;;;;4900091;29;20207;-81
2022/01/09 01:14:08;;;;;;;1.65;1.50;;;;;;;;;;4899535;29;20231;-81
2022/01/09 01:16:36;;;;;;;1.60;1.50;;;;;;;;;;4900382;29;20242;-81
2022/01/09 01:19:04;;;;;;;1.33;1.23;;;;;;;;;;4899878;29;20214;-81
2022/01/09 01:21:32;;;;;;;1.35;1.25;;;;;;;;;;4900406;29;20187;-80
2022/01/09 01:23:59;;;;;;;1.60;1.50;;;;;;;;;;4899848;29;20199;-81
2022/01/09 01:26:27;;;;;;;1.70;1.60;;;;;;;;;;4899604;29;20207;-80
2022/01/09 01:28:54;;;;;;;1.30;1.20;;;;;;;;;;4899797;29;20214;-81
2022/01/09 01:31:23;;;;;;;1.40;1.30;;;;;;;;;;4899903;29;20215;-80
2022/01/09 01:33:50;;;;;;;1.50;1.40;;;;;;;;;;4899512;29;20187;-81
2022/01/09 01:36:18;;;;;;;1.38;1.27;;;;;;;;;;4899349;29;20188;-81
2022/01/09 01:38:45;;;;;;;1.67;1.15;;;;;;;;;;4900111;29;20266;-80
2022/01/09 01:41:15;;;;;;;1.95;1.85;;;;;;;;;;4899238;29;20284;-82
2022/01/09 01:43:43;;;;;;;1.25;1.25;;;;;;;;;;4899702;29;20230;-81
2022/01/09 01:46:10;;;;;;;1.25;1.25;;;;;;;;;;4900034;29;20234;-82
2022/01/09 01:48:39;;;;;;;1.10;1.10;;;;;;;;;;4899514;29;20226;-80
2022/01/09 01:51:07;;;;;;;1.65;1.50;;;;;;;;;;4900503;29;20191;-80
2022/01/09 01:53:34;;;;;;;1.25;1.25;;;;;;;;;;4899545;29;20687;-80
2022/01/09 01:56:02;;;;;;;1.33;1.33;;;;;;;;;;4900068;29;20212;-81
2022/01/09 01:58:34;;;;;;;1.10;1.10;;;;;;;;;;4899571;29;20240;-81
2022/01/09 02:01:02;;;;;;;1.60;1.50;;;;;;;;;;4899906;29;20207;-81
2022/01/09 02:03:30;;;;;;;1.20;1.17;;;;;;;;;;4899866;29;20191;-82
2022/01/09 02:05:58;;;;;;;0.90;0.90;;;;;;;;;;4899076;29;20227;-81
2022/01/09 02:08:26;;;;;;;1.02;1.02;;;;;;;;;;4898946;29;20251;-81
2022/01/09 02:10:54;;;;;;;1.17;1.15;;;;;;;;;;4899617;29;20211;-81
2022/01/09 02:13:21;;;;;;;1.20;1.10;;;;;;;;;;4900022;29;20234;-81
2022/01/09 02:15:50;;;;;;;1.42;1.20;;;;;;;;;;4899905;29;20207;-80
2022/01/09 02:18:21;;;;;;;1.20;1.20;;;;;;;;;;4899079;29;20723;-81
2022/01/09 02:20:52;;;;;;;1.05;1.05;;;;;;;;;;4898589;29;20649;-80
2022/01/09 02:23:20;;;;;;;1.05;1.05;;;;;;;;;;4899149;29;20266;-81
2022/01/09 02:25:50;;;;;;;1.10;1.10;;;;;;;;;;4898379;29;20767;-81
2022/01/09 02:28:19;;;;;;;1.10;1.10;;;;;;;;;;4899495;29;20281;-81
2022/01/09 02:30:49;;;;;;;1.00;1.00;;;;;;;;;;4899363;29;20195;-82
2022/01/09 02:33:18;;;;;;;1.05;1.05;;;;;;;;;;4899325;29;20191;-80
2022/01/09 02:35:51;;;;;;;1.27;1.17;;;;;;;;;;4899242;29;20187;-81
2022/01/09 02:38:19;;;;;;;1.00;1.00;;;;;;;;;;4902439;29;20227;-82
2022/01/09 02:40:51;;;;;;;1.10;1.10;;;;;;;;;;4901122;29;20206;-81
2022/01/09 02:43:21;;;;;;;1.10;1.10;;;;;;;;;;4901143;29;20270;-81
2022/01/09 02:45:54;;;;;;;0.93;0.93;;;;;;;;;;4902814;29;20246;-82
2022/01/09 02:48:21;;;;;;;1.80;1.70;;;;;;;;;;4902075;29;20735;-81
2022/01/09 02:51:00;;;;;;;0.98;0.98;;;;;;;;;;4902321;29;20211;-82
2022/01/09 02:53:36;;;;;;;0.93;0.93;;;;;;;;;;4902235;29;20210;-82
2022/01/09 02:56:06;;;;;;;1.00;1.00;;;;;;;;;;4897216;29;20234;-81
2022/01/09 02:58:37;;;;;;;0.95;0.95;;;;;;;;;;4902603;29;20229;-81
2022/01/09 03:01:06;;;;;;;1.20;1.15;;;;;;;;;;4886049;29;20214;-81
2022/01/09 03:03:34;;;;;;;1.20;1.20;;;;;;;;;;4902329;29;20227;-81
2022/01/09 03:06:06;;;;;;;1.05;1.00;;;;;;;;;;4902213;29;20215;-81
2022/01/09 03:08:37;;;;;;;0.98;0.98;;;;;;;;;;4902228;29;20223;-82
2022/01/09 03:14:23;;;;;;;1.02;1.02;;;;;;;;;;4886568;29;20249;-81
2022/01/09 03:19:33;;;;;;;0.90;0.90;;;;;;;;;;4900678;29;20209;-82
2022/01/09 03:22:02;;;;;;;0.98;0.93;;;;;;;;;;4901862;29;20239;-82
2022/01/09 03:24:38;;;;;;;0.90;0.90;;;;;;;;;;4902580;29;20200;-83
2022/01/09 03:27:37;;;;;;;1.10;1.00;;;;;;;;;;4897472;29;20585;-82
2022/01/09 03:30:14;;;;;;;0.80;0.80;;;;;;;;;;4896677;29;20211;-83
2022/01/09 03:32:42;;;;;;;1.55;1.45;;;;;;;;;;4901563;29;20222;-82
2022/01/09 03:35:14;;;;;;;1.00;1.00;;;;;;;;;;4901791;29;20244;-81
2022/01/09 03:37:45;;;;;;;1.00;1.00;;;;;;;;;;4887719;29;20224;-83
2022/01/09 03:40:15;;;;;;;1.10;1.10;;;;;;;;;;4898043;29;20588;-82
2022/01/09 03:42:44;;;;;;;0.85;0.85;;;;;;;;;;4896731;29;20188;-82
2022/01/09 03:45:31;;;;;;;0.90;0.90;;;;;;;;;;4902150;29;20203;-83
2022/01/09 03:48:19;;;;;;;1.10;1.10;;;;;;;;;;4900557;29;20302;-81
2022/01/09 03:50:51;;;;;;;0.90;0.90;;;;;;;;;;4902883;29;20684;-83
2022/01/09 03:53:20;;;;;;;1.00;1.00;;;;;;;;;;4902869;29;20653;-83
2022/01/09 03:55:48;;;;;;;1.00;1.00;;;;;;;;;;4902685;29;20196;-83
2022/01/09 03:58:15;;;;;;;0.80;0.80;;;;;;;;;;4904663;29;20231;-82
2022/01/09 04:00:43;;;;;;;1.00;1.00;;;;;;;;;;4905364;29;20214;-82
2022/01/09 04:03:10;;;;;;;1.25;0.88;;;;;;;;;;4903672;29;20210;-83
2022/01/09 04:05:38;;;;;;;0.90;0.90;;;;;;;;;;4902555;29;20199;-83
2022/01/09 04:08:06;;;;;;;0.95;0.93;;;;;;;;;;4903565;29;20223;-83
2022/01/09 04:10:40;;;;;;;1.30;1.20;;;;;;;;;;4904121;29;20194;-83
2022/01/09 04:13:08;;;;;;;1.10;1.10;;;;;;;;;;4904877;29;20207;-82
2022/01/09 04:15:35;;;;;;;1.25;1.17;;;;;;;;;;4906004;29;20241;-83
2022/01/09 04:18:03;;;;;;;1.25;1.25;;;;;;;;;;4908600;29;20219;-83
2022/01/09 04:20:32;;;;;;;1.10;1.10;;;;;;;;;;4907247;29;20213;-83
2022/01/09 04:23:00;;;;;;;2.35;1.20;;;;;;;;;;4903795;29;20210;-83
2022/01/09 04:25:28;;;;;;;0.93;0.93;;;;;;;;;;4904469;29;20229;-83
2022/01/09 04:27:57;;;;;;;1.17;1.10;;;;;;;;;;4903815;29;20227;-82
2022/01/09 04:30:25;;;;;;;0.90;0.90;;;;;;;;;;4901801;29;20648;-83
2022/01/09 04:32:52;;;;;;;1.20;1.20;;;;;;;;;;4901033;29;20490;-83
2022/01/09 04:35:20;;;;;;;1.00;1.00;;;;;;;;;;4902934;29;20668;-83
2022/01/09 04:37:48;;;;;;;0.80;0.80;;;;;;;;;;4901683;29;20229;-84
2022/01/09 04:40:18;;;;;;;0.90;0.90;;;;;;;;;;4902215;29;20651;-83
2022/01/09 04:42:46;;;;;;;0.73;0.73;;;;;;;;;;4902404;29;20247;-84
2022/01/09 04:45:17;;;;;;;0.80;0.80;;;;;;;;;;4902521;29;20191;-84
2022/01/09 04:47:48;;;;;;;1.00;1.00;;;;;;;;;;4900627;29;20251;-83
2022/01/09 04:50:21;;;;;;;0.70;0.70;;;;;;;;;;4902188;29;20231;-83
2022/01/09 04:52:51;;;;;;;0.80;0.80;;;;;;;;;;4900605;29;20192;-84
2022/01/09 04:55:19;;;;;;;0.60;0.60;;;;;;;;;;4902193;29;20224;-83
2022/01/09 04:57:46;;;;;;;1.70;1.00;;;;;;;;;;4901067;29;20222;-84
2022/01/09 05:00:15;;;;;;;0.57;0.57;;;;;;;;;;4901686;29;20656;-84
2022/01/09 05:02:43;;;;;;;0.68;0.68;;;;;;;;;;4901901;29;20201;-83
2022/01/09 05:05:12;;;;;;;0.60;0.60;;;;;;;;;;4901978;29;20198;-84
2022/01/09 05:07:40;;;;;;;0.70;0.70;;;;;;;;;;4902221;29;20234;-85
2022/01/09 05:10:11;;;;;;;0.65;0.65;;;;;;;;;;4901696;29;20195;-85
2022/01/09 05:12:39;;;;;;;0.70;0.70;;;;;;;;;;4901135;29;20194;-85
2022/01/09 05:15:10;;;;;;;0.60;0.60;;;;;;;;;;4900995;29;20231;-84
2022/01/09 05:17:39;;;;;;;0.50;0.50;;;;;;;;;;4901845;29;20230;-83
2022/01/09 05:20:08;;;;;;;0.70;0.70;;;;;;;;;;4902044;29;20195;-85
2022/01/09 05:22:35;;;;;;;0.88;0.88;;;;;;;;;;4901872;29;20207;-85
2022/01/09 05:25:06;;;;;;;0.70;0.70;;;;;;;;;;4901563;29;20648;-84
2022/01/09 05:27:36;;;;;;;0.68;0.68;;;;;;;;;;4901213;29;20267;-84
2022/01/09 05:30:07;;;;;;;0.50;0.50;;;;;;;;;;4901588;29;20199;-85
2022/01/09 05:32:35;;;;;;;0.60;0.60;;;;;;;;;;4901664;29;20187;-84
2022/01/09 05:35:08;;;;;;;0.47;0.47;;;;;;;;;;4901546;29;20225;-85
2022/01/09 05:37:35;;;;;;;0.50;0.50;;;;;;;;;;4901060;29;20215;-82
2022/01/09 05:40:03;;;;;;;0.50;0.50;;;;;;;;;;4901393;29;20191;-83
2022/01/09 05:42:30;;;;;;;0.50;0.50;;;;;;;;;;4900316;29;20207;-82
2022/01/09 05:44:57;;;;;;;0.60;0.60;;;;;;;;;;4900682;29;20199;-83
2022/01/09 05:47:25;;;;;;;0.60;0.60;;;;;;;;;;4900499;29;20238;-84
2022/01/09 05:49:52;;;;;;;0.47;0.47;;;;;;;;;;4901183;29;20195;-84
2022/01/09 05:52:21;;;;;;;0.40;0.40;;;;;;;;;;4900641;29;20199;-83
2022/01/09 05:54:50;;;;;;;0.50;0.50;;;;;;;;;;4900424;29;20289;-83
2022/01/09 05:57:17;;;;;;;0.50;0.50;;;;;;;;;;4900520;29;20221;-83
2022/01/09 05:59:44;;;;;;;0.68;0.68;;;;;;;;;;4900185;29;20215;-85
2022/01/09 06:02:12;;;;;;;0.52;0.52;;;;;;;;;;4902040;29;20191;-85
2022/01/09 06:04:39;;;;;;;0.40;0.40;;;;;;;;;;4902183;29;20644;-85
2022/01/09 06:07:07;;;;;;;0.50;0.50;;;;;;;;;;4901142;29;20227;-85
2022/01/09 06:09:36;;;;;;;0.63;0.63;;;;;;;;;;4901928;29;20196;-86
2022/01/09 06:12:10;;;;;;;0.50;0.50;;;;;;;;;;4900824;29;20206;-87
2022/01/09 06:14:37;;;;;;;0.70;0.70;;;;;;;;;;4901294;29;20620;-86
2022/01/09 06:17:06;;;;;;;1.20;1.08;;;;;;;;;;4901781;29;20215;-86
2022/01/09 06:19:35;;;;;;;0.90;0.90;;;;;;;;;;4883794;29;20199;-86
2022/01/09 06:22:05;;;;;;;0.82;0.82;;;;;;;;;;4882431;29;20207;-85
2022/01/09 06:24:32;;;;;;;0.80;0.80;;;;;;;;;;4882756;29;20189;-86
2022/01/09 06:27:01;;;;;;;1.05;1.00;;;;;;;;;;4894483;29;20219;-86
2022/01/09 06:29:30;;;;;;;1.95;1.85;;;;;;;;;;4901120;29;20205;-85
2022/01/09 06:31:57;;;;;;;1.00;1.00;;;;;;;;;;4901262;29;20203;-86
2022/01/09 06:34:24;;;;;;;1.00;1.00;;;;;;;;;;4901081;29;20210;-86
2022/01/09 06:36:52;;;;;;;0.90;0.90;;;;;;;;;;4901391;29;20230;-85
2022/01/09 06:39:19;;;;;;;0.73;0.73;;;;;;;;;;4900613;29;20198;-86
2022/01/09 06:41:47;;;;;;;0.50;0.50;;;;;;;;;;4900500;29;20221;-85
2022/01/09 06:44:15;;;;;;;0.55;0.55;;;;;;;;;;4900489;29;20210;-84
2022/01/09 06:46:43;;;;;;;0.50;0.50;;;;;;;;;;4898226;29;20223;-85
2022/01/09 06:49:12;;;;;;;0.50;0.50;;;;;;;;;;4887647;29;20227;-85
2022/01/09 06:51:40;;;;;;;0.60;0.60;;;;;;;;;;4901222;29;20683;-85
2022/01/09 06:54:07;;;;;;;1.05;1.00;;;;;;;;;;4901237;29;20203;-85
2022/01/09 06:56:35;;;;;;;1.40;1.30;;;;;;;;;;4900381;29;20550;-85
2022/01/09 06:59:04;;;;;;;1.70;1.60;;;;;;;;;;4886621;29;20192;-85
2022/01/09 07:01:33;;;;;;;0.80;0.80;;;;;;;;;;4899043;29;20214;-83
2022/01/09 07:04:01;;;;;;;1.20;1.10;;;;;;;;;;4899252;29;20191;-84
2022/01/09 07:06:28;;;;;;;0.82;0.82;;;;;;;;;;4899880;29;20193;-82
2022/01/09 07:08:56;;;;;;;1.52;1.10;;;;;;;;;;4899313;29;20208;-83
2022/01/09 07:11:24;;;;;;;1.10;1.00;;;;;;;;;;4899331;29;20188;-83
2022/01/09 07:13:52;;;;;;;0.90;0.80;;;;;;;;;;4898654;29;20297;-84
2022/01/09 07:16:19;;;;;;;0.47;0.47;;;;;;;;;;4899366;29;20203;-83
2022/01/09 07:18:48;;;;;;;0.40;0.40;;;;;;;;;;4899336;29;20211;-83
2022/01/09 07:21:15;;;;;;;1.05;1.05;;;;;;;;;;4898918;29;20562;-83
2022/01/09 07:23:43;;;;;;;1.67;1.58;;;;;;;;;;4901389;29;20192;-83
2022/01/09 07:26:10;;;;;;;3.15;2.33;;;;;;;;;;4903355;29;20224;-83
2022/01/09 07:28:38;;;;;;;1.15;1.05;;;;;;;;;;4902509;29;20223;-83
2022/01/09 07:31:05;;;;;;;0.90;0.90;;;;;;;;;;4902556;29;20187;-83
2022/01/09 07:33:34;;;;;;;0.60;0.60;;;;;;;;;;4902163;29;20196;-83
2022/01/09 07:36:03;;;;;;;0.63;0.63;;;;;;;;;;4901929;29;20202;-83
2022/01/09 07:38:32;;;;;;;0.60;0.60;;;;;;;;;;4901719;29;20592;-83
2022/01/09 07:41:00;;;;;;;0.60;0.60;;;;;;;;;;4900403;29;20184;-84
2022/01/09 07:43:28;;;;;;;0.60;0.60;;;;;;;;;;4900843;29;20202;-83
2022/01/09 07:45:56;;;;;;;0.70;0.70;;;;;;;;;;4900435;29;20206;-85
2022/01/09 07:48:23;;;;;;;0.68;0.68;;;;;;;;;;4900002;29;20250;-83
2022/01/09 07:50:51;;;;;;;0.55;0.55;;;;;;;;;;4900468;29;20195;-83
2022/01/09 07:53:23;;;;;;;0.47;0.47;;;;;;;;;;4882068;29;20214;-83
2022/01/09 07:55:51;;;;;;;0.75;0.75;;;;;;;;;;4882245;29;20252;-83
2022/01/09 07:58:19;;;;;;;0.95;0.95;;;;;;;;;;4881784;29;20228;-83
2022/01/09 08:00:46;;;;;;;0.82;0.82;;;;;;;;;;4884924;29;20567;-83
2022/01/09 08:03:15;;;;;;;0.75;0.75;;;;;;;;;;4899843;29;20211;-84
2022/01/09 08:05:42;;;;;;;0.70;0.70;;;;;;;;;;4900904;29;20199;-84
2022/01/09 08:08:10;;;;;;;0.65;0.65;;;;;;;;;;4901151;29;20227;-84
2022/01/09 08:10:39;;;;;;;2.22;1.90;;;;;;;;;;4900500;29;20218;-83
2022/01/09 08:13:06;;;;;;;2.50;2.13;;;;;;;;;;4900052;29;20191;-84
2022/01/09 08:15:34;;;;;;;4.20;2.05;;;;;;;;;;4900004;29;20235;-84
2022/01/09 08:18:01;;;;;;;1.40;1.20;;;;;;;;;;4899415;29;20612;-83
2022/01/09 08:20:29;;;;;;;1.10;0.98;;;;;;;;;;4900062;29;20195;-84
2022/01/09 08:22:56;;;;;;;1.92;1.83;;;;;;;;;;4899588;29;20211;-84
2022/01/09 08:25:24;;;;;;;1.17;0.90;;;;;;;;;;4900065;29;20203;-83
2022/01/09 08:27:53;;;;;;;0.52;0.52;;;;;;;;;;4899988;29;20761;-84
2022/01/09 08:30:21;;;;;;;0.63;0.63;;;;;;;;;;4899662;29;20214;-83
2022/01/09 08:32:49;;;;;;;1.25;1.15;;;;;;;;;;4900171;29;20222;-84
2022/01/09 08:35:17;;;;;;;0.85;0.80;;;;;;;;;;4899199;29;20270;-84
2022/01/09 08:37:45;;;;;;;3.22;1.58;;;;;;;;;;4899559;29;20704;-85
2022/01/09 08:40:17;;;;;;;1.40;1.30;;;;;;;;;;4899659;29;20273;-85
2022/01/09 08:42:45;;;;;;;1.77;1.20;;;;;;;;;;4900096;29;20278;-86
2022/01/09 08:45:16;;;;;;;2.50;2.13;;;;;;;;;;4899763;29;20207;-85
2022/01/09 08:47:47;;;;;;;2.13;1.70;;;;;;;;;;4899194;29;20235;-87
2022/01/09 08:50:17;;;;;;;1.52;1.42;;;;;;;;;;4881531;29;20212;-85
2022/01/09 08:52:46;;;;;;;3.08;2.20;;;;;;;;;;4892881;29;20410;-86
2022/01/09 08:55:14;;;;;;;2.42;1.77;;;;;;;;;;4899084;29;20191;-86
2022/01/09 08:57:42;;;;;;;4.10;1.48;;;;;;;;;;4898988;29;20329;-89
2022/01/09 09:00:12;;;;;;;1.92;1.33;;;;;;;;;;5455877;23;20286;-86
2022/01/09 09:02:41;;;;;;;2.72;2.25;;;;;;;;;;4897973;29;20206;-83
2022/01/09 09:05:09;;;;;;;1.85;1.70;;;;;;;;;;4897722;29;20271;-83
2022/01/09 09:07:51;;;;;;;3.85;3.25;;;;;;;;;;4897997;29;20554;-87
2022/01/09 09:11:21;;;;;;;3.55;2.65;;;;;;;;;;4914989;29;20228;-88
2022/01/09 13:16:09;;;;;;;3.10;2.80;;;;;;;;;;5153716;27;21072;-84
2022/01/09 13:18:39;;;;;;;3.95;2.50;;;;;;;;;;5153847;27;20256;-85
2022/01/09 13:21:18;;;;;;;3.05;2.50;;;;;;;;;;5154008;27;20214;-85
2022/01/09 13:24:05;;;;;;;5.43;2.83;;;;;;;;;;5154181;27;20642;-85
2022/01/09 13:26:40;;;;;;;2.90;2.40;;;;;;;;;;5153458;27;20187;-88
2022/01/09 13:29:16;;;;;;;4.15;2.28;;;;;;;;;;5141815;27;20237;-88
2022/01/09 13:31:47;;;;;;;1.90;1.80;;;;;;;;;;5136322;27;20211;-88
2022/01/09 13:34:33;;;;;;;3.13;2.70;;;;;;;;;;5149990;27;20198;-87
2022/01/09 13:37:07;;;;;;;3.60;3.30;;;;;;;;;;5144961;27;20186;-88
2022/01/09 13:39:35;;;;;;;3.63;2.33;;;;;;;;;;5146500;27;20193;-88
2022/01/09 13:42:05;;;;;;;2.35;2.15;;;;;;;;;;5140495;27;20223;-88
2022/01/09 13:44:35;;;;;;;2.83;2.45;;;;;;;;;;5155941;27;20557;-87
2022/01/09 13:47:07;;;;;;;2.20;2.00;;;;;;;;;;5154761;27;20201;-87
2022/01/09 13:49:38;;;;;;;2.33;2.17;;;;;;;;;;5133630;28;20207;-87
2022/01/09 13:52:13;;;;;;;3.85;2.95;;;;;;;;;;5135482;27;20243;-89
2022/01/09 13:54:40;;;;;;;2.63;2.42;;;;;;;;;;5134588;28;20210;-87
2022/01/09 13:57:09;;;;;;;4.10;3.42;;;;;;;;;;5134443;27;20195;-89
2022/01/09 13:59:40;;;;;;;4.15;2.47;;;;;;;;;;5133156;27;20211;-89
2022/01/09 14:02:08;;;;;;;5.43;2.22;;;;;;;;;;5133209;28;20215;-89
2022/01/09 14:04:36;;;;;;;2.83;2.20;;;;;;;;;;5143178;27;20183;-88
2022/01/09 14:07:05;;;;;;;4.68;3.08;;;;;;;;;;5156701;27;20210;-88
2022/01/09 14:09:39;;;;;;;3.53;2.10;;;;;;;;;;5139887;27;20195;-88
2022/01/09 14:12:11;;;;;;;4.45;2.83;;;;;;;;;;5151305;27;20294;-88
2022/01/09 14:14:42;;;;;;;2.38;2.25;;;;;;;;;;5139588;27;20227;-88
2022/01/09 14:17:29;;;;;;;2.67;2.47;;;;;;;;;;5154040;27;20221;-88
2022/01/09 14:20:00;;;;;;;4.32;2.67;;;;;;;;;;5154059;27;20194;-88
2022/01/09 14:22:43;;;;;;;3.63;2.50;;;;;;;;;;5151840;27;20641;-88
2022/01/09 14:25:12;;;;;;;3.72;2.53;;;;;;;;;;5133212;27;20184;-87
2022/01/09 14:27:55;;;;;;;7.35;4.35;;;;;;;;;;5120453;28;20645;-88
2022/01/09 14:30:28;;;;;;;3.42;3.13;;;;;;;;;;5122517;27;20660;-89
2022/01/09 14:33:12;;;;;;;7.20;4.00;;;;;;;;;;5140964;27;20195;-87
2022/01/09 14:35:43;;;;;;;5.40;4.07;;;;;;;;;;5141474;27;20206;-88
2022/01/09 14:38:14;;;;;;;3.90;2.53;;;;;;;;;;5139878;27;20196;-89
2022/01/09 14:40:49;;;;;;;3.00;2.67;;;;;;;;;;5140516;27;20238;-88
2022/01/09 14:43:17;;;;;;;4.72;2.92;;;;;;;;;;5137549;27;20194;-87
2022/01/09 14:45:45;;;;;;;5.18;3.90;;;;;;;;;;5133827;27;20616;-88
2022/01/09 14:48:14;;;;;;;3.75;3.40;;;;;;;;;;5139724;27;20214;-88
2022/01/09 14:50:45;;;;;;;3.35;2.60;;;;;;;;;;5140535;27;20291;-88
2022/01/09 14:53:23;;;;;;;4.20;3.28;;;;;;;;;;5140128;27;20206;-88
2022/01/09 14:55:53;;;;;;;5.38;3.58;;;;;;;;;;5122039;27;20199;-88
2022/01/09 14:58:21;;;;;;;7.78;3.63;;;;;;;;;;5125645;27;20240;-88
2022/01/09 15:00:51;;;;;;;4.57;2.90;;;;;;;;;;5139367;27;20566;-88
2022/01/09 15:03:20;;;;;;;2.60;2.38;;;;;;;;;;5133412;27;20198;-88
2022/01/09 15:05:48;;;;;;;3.08;2.20;;;;;;;;;;5136796;27;20573;-88
2022/01/09 15:08:27;;;;;;;3.53;3.28;;;;;;;;;;5139534;27;20202;-88
2022/01/09 15:10:55;;;;;;;5.10;2.50;;;;;;;;;;5135457;27;20222;-88
2022/01/09 15:13:25;;;;;;;2.38;2.17;;;;;;;;;;5126965;27;20200;-88
2022/01/09 15:15:53;;;;;;;4.13;3.13;;;;;;;;;;5134612;27;20730;-88
2022/01/09 15:18:24;;;;;;;2.10;2.00;;;;;;;;;;5130632;27;20246;-88
2022/01/09 15:20:51;;;;;;;2.50;2.30;;;;;;;;;;5130241;27;20216;-87
2022/01/09 15:23:19;;;;;;;3.13;2.83;;;;;;;;;;5141269;27;20206;-88
2022/01/09 15:25:47;;;;;;;3.33;2.40;;;;;;;;;;5133207;27;20191;-89
2022/01/09 15:28:16;;;;;;;4.43;3.15;;;;;;;;;;5135997;27;20229;-88
2022/01/09 15:30:46;;;;;;;3.08;2.55;;;;;;;;;;5131211;27;20250;-89
2022/01/09 15:33:26;;;;;;;3.20;2.65;;;;;;;;;;5140090;27;20229;-88
2022/01/09 15:35:53;;;;;;;4.57;3.13;;;;;;;;;;5135745;27;20226;-88
2022/01/09 15:38:21;;;;;;;3.85;3.45;;;;;;;;;;5135960;27;20222;-88
2022/01/09 15:40:49;;;;;;;6.82;4.57;;;;;;;;;;5131224;27;20253;-89
2022/01/09 15:43:16;;;;;;;3.50;3.10;;;;;;;;;;5138522;27;20195;-88
2022/01/09 15:45:44;;;;;;;3.55;2.70;;;;;;;;;;5132964;27;20202;-88
2022/01/09 15:48:11;;;;;;;3.25;2.75;;;;;;;;;;5133071;27;20195;-89
2022/01/09 15:50:40;;;;;;;2.83;2.00;;;;;;;;;;5132928;27;20215;-89
2022/01/09 15:53:07;;;;;;;2.75;2.53;;;;;;;;;;5126865;27;20210;-88
2022/01/09 15:55:35;;;;;;;1.90;1.80;;;;;;;;;;5131466;27;20230;-88
2022/01/09 15:58:04;;;;;;;3.47;2.65;;;;;;;;;;5133197;27;20195;-88
2022/01/09 16:00:34;;;;;;;3.70;2.90;;;;;;;;;;5136748;27;20214;-88
2022/01/09 16:03:03;;;;;;;3.50;2.92;;;;;;;;;;5135224;27;20701;-89
2022/01/09 16:05:30;;;;;;;3.90;2.15;;;;;;;;;;5134165;27;20584;-89
2022/01/09 16:07:59;;;;;;;2.38;2.17;;;;;;;;;;5134965;27;20198;-90
2022/01/09 16:10:27;;;;;;;3.97;2.80;;;;;;;;;;5133846;27;20265;-89
2022/01/09 16:12:54;;;;;;;6.60;5.35;;;;;;;;;;5127939;27;20267;-88
2022/01/09 16:15:22;;;;;;;4.45;3.83;;;;;;;;;;5131068;27;20214;-89
2022/01/09 16:21:31;;;;;;;4.35;3.97;;;;;;;;;;5135149;27;20255;-88
2022/01/09 16:24:00;;;;;;;4.68;4.22;;;;;;;;;;5128051;27;20538;-88
2022/01/09 16:26:27;;;;;;;4.25;3.47;;;;;;;;;;5115453;28;20276;-88
2022/01/09 16:28:54;;;;;;;3.97;3.22;;;;;;;;;;5116366;28;20204;-88
2022/01/09 16:31:24;;;;;;;4.03;3.25;;;;;;;;;;5114292;28;20688;-88
2022/01/09 16:33:52;;;;;;;3.15;2.83;;;;;;;;;;5132455;27;20202;-88
2022/01/09 16:36:22;;;;;;;3.05;2.85;;;;;;;;;;5136592;27;20244;-88
2022/01/09 16:38:50;;;;;;;3.65;3.35;;;;;;;;;;5136625;27;20194;-88
2022/01/09 16:41:20;;;;;;;2.60;2.40;;;;;;;;;;5135623;27;20745;-88
2022/01/09 16:43:48;;;;;;;2.83;2.63;;;;;;;;;;5135631;27;20206;-89
2022/01/09 16:46:28;;;;;;;5.00;4.10;;;;;;;;;;5135001;27;20206;-88
2022/01/09 16:48:57;;;;;;;9.20;8.27;;;;;;;;;;5135439;27;20190;-88
2022/01/09 16:51:25;;;;;;;6.55;5.78;;;;;;;;;;5134857;27;20223;-89
2022/01/09 16:53:52;;;;;;;6.03;4.90;;;;;;;;;;5134549;27;20289;-89
2022/01/09 16:56:21;;;;;;;5.15;4.63;;;;;;;;;;5133596;27;20264;-89
2022/01/09 16:58:49;;;;;;;6.50;5.82;;;;;;;;;;5135063;27;20547;-89
2022/01/09 17:01:17;;;;;;;6.20;5.35;;;;;;;;;;5134419;27;20229;-89
2022/01/09 17:03:46;;;;;;;5.63;4.82;;;;;;;;;;5134726;27;20208;-89
2022/01/09 17:06:16;;;;;;;5.22;3.33;;;;;;;;;;5134450;27;20195;-89
2022/01/09 17:08:56;;;;;;;4.25;3.30;;;;;;;;;;5134945;27;20535;-90
2022/01/09 17:11:25;;;;;;;4.20;2.92;;;;;;;;;;5134452;27;20225;-90
2022/01/09 17:13:53;;;;;;;4.38;3.97;;;;;;;;;;5134586;28;20206;-90
2022/01/09 17:16:21;;;;;;;2.88;2.53;;;;;;;;;;5134191;28;20301;-90
2022/01/09 17:19:08;;;;;;;2.45;2.22;;;;;;;;;;5134747;27;20258;-89
2022/01/09 17:21:35;;;;;;;2.28;2.08;;;;;;;;;;5134899;28;20222;-89
2022/01/09 17:24:51;;;;;;;2.13;2.03;;;;;;;;;;5134776;27;20210;-89
2022/01/09 17:27:20;;;;;;;2.05;1.90;;;;;;;;;;5132198;28;20249;-88
2022/01/09 17:29:55;;;;;;;3.00;2.38;;;;;;;;;;5132129;28;20202;-89
2022/01/09 17:32:22;;;;;;;4.53;2.70;;;;;;;;;;5132706;28;20252;-89
2022/01/09 17:34:59;;;;;;;2.40;2.20;;;;;;;;;;5123520;28;20199;-89
2022/01/09 17:37:28;;;;;;;2.35;2.15;;;;;;;;;;5136452;27;20601;-88
2022/01/09 17:39:56;;;;;;;2.38;2.20;;;;;;;;;;5135836;28;20199;-89
2022/01/09 17:42:24;;;;;;;2.58;2.38;;;;;;;;;;5135558;28;20218;-88
2022/01/09 17:44:52;;;;;;;2.30;2.10;;;;;;;;;;5135893;27;20210;-88
2022/01/09 17:47:19;;;;;;;2.80;2.60;;;;;;;;;;5135526;28;20602;-88
2022/01/09 17:49:55;;;;;;;3.63;3.33;;;;;;;;;;5135434;28;20674;-88
2022/01/09 17:52:23;;;;;;;4.13;2.70;;;;;;;;;;5135840;28;20255;-89
2022/01/09 17:54:50;;;;;;;4.82;3.65;;;;;;;;;;5136236;28;20191;-89
2022/01/09 17:57:18;;;;;;;4.82;3.55;;;;;;;;;;5135730;27;20222;-88
2022/01/09 17:59:47;;;;;;;10.65;4.95;;;;;;;;;;5136304;28;20199;-88
2022/01/09 18:02:25;;;;;;;4.05;3.45;;;;;;;;;;5139246;27;20261;-87
2022/01/09 18:05:05;;;;;;;3.00;2.80;;;;;;;;;;5132282;27;20199;-88
2022/01/09 18:07:33;;;;;;;3.75;3.30;;;;;;;;;;5124594;27;20199;-88
2022/01/09 18:10:00;;;;;;;6.68;3.55;;;;;;;;;;5140043;27;20202;-88
2022/01/09 18:12:27;;;;;;;7.00;3.72;;;;;;;;;;5138857;27;20647;-88
2022/01/09 18:14:56;;;;;;;3.58;3.25;;;;;;;;;;5120841;27;20211;-87
2022/01/09 18:17:25;;;;;;;4.55;4.15;;;;;;;;;;5125475;27;20199;-88
2022/01/09 18:19:53;;;;;;;4.32;3.95;;;;;;;;;;5140207;27;20206;-89
2022/01/09 18:22:20;;;;;;;4.63;4.07;;;;;;;;;;5139976;27;20222;-88
2022/01/09 18:24:48;;;;;;;5.90;4.43;;;;;;;;;;5139284;27;20207;-88
2022/01/09 18:27:15;;;;;;;4.53;3.90;;;;;;;;;;5139946;27;20209;-89
2022/01/09 18:29:43;;;;;;;6.07;4.95;;;;;;;;;;5138103;27;20651;-89
2022/01/09 18:32:12;;;;;;;3.72;3.30;;;;;;;;;;5117954;27;20211;-89
2022/01/09 18:34:39;;;;;;;2.88;2.58;;;;;;;;;;5117880;28;20210;-89
2022/01/09 18:37:07;;;;;;;2.83;2.40;;;;;;;;;;5117634;28;20238;-88
2022/01/09 18:39:34;;;;;;;5.50;3.75;;;;;;;;;;5117863;28;20207;-88
2022/01/09 18:42:04;;;;;;;2.60;2.17;;;;;;;;;;5117506;28;20302;-88
2022/01/09 18:44:38;;;;;;;3.63;2.45;;;;;;;;;;5121173;27;20198;-88
2022/01/09 18:47:06;;;;;;;4.07;2.97;;;;;;;;;;5138926;27;20185;-88
2022/01/09 18:49:35;;;;;;;4.68;2.90;;;;;;;;;;5138681;27;20206;-90
2022/01/09 18:52:02;;;;;;;3.28;2.45;;;;;;;;;;5139223;27;20207;-89
2022/01/09 18:54:30;;;;;;;3.72;2.28;;;;;;;;;;5139293;27;20206;-89
2022/01/09 18:57:01;;;;;;;2.90;2.50;;;;;;;;;;5139437;27;20203;-88
2022/01/09 18:59:35;;;;;;;2.90;2.10;;;;;;;;;;5139590;27;20209;-88
2022/01/09 19:02:05;;;;;;;3.28;2.15;;;;;;;;;;5140429;27;20311;-88
2022/01/09 19:04:34;;;;;;;3.25;2.45;;;;;;;;;;5140049;27;20221;-89
2022/01/09 19:07:01;;;;;;;1.80;1.63;;;;;;;;;;5140171;27;20195;-88
2022/01/09 19:09:29;;;;;;;2.20;2.00;;;;;;;;;;5139682;27;20674;-88